sensor_id;sensor_type;location;lat;lon;timestamp;P1;durP1;ratioP1;P2;durP2;ratioP2
49962;SDS011;36180;57.678;11.910;2023-08-08T00:00:44;23.52;;;2.75;;
49962;SDS011;36180;57.678;11.910;2023-08-08T00:03:11;31.95;;;3.33;;
49962;SDS011;36180;57.678;11.910;2023-08-08T00:05:38;17.08;;;2.80;;
49962;SDS011;36180;57.678;11.910;2023-08-08T00:08:05;23.73;;;3.10;;
49962;SDS011;36180;57.678;11.910;2023-08-08T00:10:32;24.75;;;2.53;;
49962;SDS011;36180;57.678;11.910;2023-08-08T00:13:01;20.15;;;2.78;;
49962;SDS011;36180;57.678;11.910;2023-08-08T00:15:28;14.52;;;2.15;;
49962;SDS011;36180;57.678;11.910;2023-08-08T00:17:55;23.52;;;2.58;;
49962;SDS011;36180;57.678;11.910;2023-08-08T00:20:22;21.55;;;2.80;;
49962;SDS011;36180;57.678;11.910;2023-08-08T00:22:49;27.27;;;3.00;;
49962;SDS011;36180;57.678;11.910;2023-08-08T00:25:16;22.27;;;2.88;;
49962;SDS011;36180;57.678;11.910;2023-08-08T00:27:43;24.95;;;2.88;;
49962;SDS011;36180;57.678;11.910;2023-08-08T00:30:12;30.85;;;2.90;;
49962;SDS011;36180;57.678;11.910;2023-08-08T00:32:39;23.55;;;2.65;;
49962;SDS011;36180;57.678;11.910;2023-08-08T00:35:07;25.27;;;2.80;;
49962;SDS011;36180;57.678;11.910;2023-08-08T00:37:34;17.92;;;2.70;;
49962;SDS011;36180;57.678;11.910;2023-08-08T00:40:02;24.50;;;2.80;;
49962;SDS011;36180;57.678;11.910;2023-08-08T00:42:29;19.27;;;2.63;;
49962;SDS011;36180;57.678;11.910;2023-08-08T00:44:56;14.70;;;2.53;;
49962;SDS011;36180;57.678;11.910;2023-08-08T00:47:30;18.48;;;2.50;;
49962;SDS011;36180;57.678;11.910;2023-08-08T00:49:58;21.52;;;2.80;;
49962;SDS011;36180;57.678;11.910;2023-08-08T00:52:25;14.57;;;2.60;;
49962;SDS011;36180;57.678;11.910;2023-08-08T00:54:54;21.15;;;2.83;;
49962;SDS011;36180;57.678;11.910;2023-08-08T00:57:22;25.80;;;3.08;;
49962;SDS011;36180;57.678;11.910;2023-08-08T00:59:51;23.73;;;2.70;;
49962;SDS011;36180;57.678;11.910;2023-08-08T01:02:18;19.27;;;2.90;;
49962;SDS011;36180;57.678;11.910;2023-08-08T01:04:47;23.65;;;3.35;;
49962;SDS011;36180;57.678;11.910;2023-08-08T01:07:20;24.95;;;2.95;;
49962;SDS011;36180;57.678;11.910;2023-08-08T01:09:55;17.85;;;2.55;;
49962;SDS011;36180;57.678;11.910;2023-08-08T01:12:30;19.30;;;2.67;;
49962;SDS011;36180;57.678;11.910;2023-08-08T01:14:57;20.65;;;2.78;;
49962;SDS011;36180;57.678;11.910;2023-08-08T01:17:25;20.80;;;3.13;;
49962;SDS011;36180;57.678;11.910;2023-08-08T01:19:54;27.65;;;3.40;;
49962;SDS011;36180;57.678;11.910;2023-08-08T01:22:23;24.23;;;2.97;;
49962;SDS011;36180;57.678;11.910;2023-08-08T01:24:54;24.25;;;3.22;;
49962;SDS011;36180;57.678;11.910;2023-08-08T01:27:22;29.95;;;2.55;;
49962;SDS011;36180;57.678;11.910;2023-08-08T01:29:49;20.08;;;2.95;;
49962;SDS011;36180;57.678;11.910;2023-08-08T01:32:16;25.02;;;2.67;;
49962;SDS011;36180;57.678;11.910;2023-08-08T01:34:43;17.95;;;2.92;;
49962;SDS011;36180;57.678;11.910;2023-08-08T01:37:11;10.18;;;1.90;;
49962;SDS011;36180;57.678;11.910;2023-08-08T01:39:41;11.05;;;1.80;;
49962;SDS011;36180;57.678;11.910;2023-08-08T01:42:10;13.27;;;2.30;;
49962;SDS011;36180;57.678;11.910;2023-08-08T01:44:38;23.20;;;2.80;;
49962;SDS011;36180;57.678;11.910;2023-08-08T01:47:07;24.02;;;3.00;;
49962;SDS011;36180;57.678;11.910;2023-08-08T01:49:35;29.13;;;3.47;;
49962;SDS011;36180;57.678;11.910;2023-08-08T01:52:02;15.32;;;2.38;;
49962;SDS011;36180;57.678;11.910;2023-08-08T01:54:30;21.95;;;2.95;;
49962;SDS011;36180;57.678;11.910;2023-08-08T01:56:57;18.45;;;2.25;;
49962;SDS011;36180;57.678;11.910;2023-08-08T01:59:26;17.05;;;2.28;;
49962;SDS011;36180;57.678;11.910;2023-08-08T02:01:53;24.08;;;2.58;;
49962;SDS011;36180;57.678;11.910;2023-08-08T02:04:21;18.25;;;2.20;;
49962;SDS011;36180;57.678;11.910;2023-08-08T02:06:48;27.33;;;2.72;;
49962;SDS011;36180;57.678;11.910;2023-08-08T02:09:15;15.68;;;2.53;;
49962;SDS011;36180;57.678;11.910;2023-08-08T02:11:42;24.35;;;2.95;;
49962;SDS011;36180;57.678;11.910;2023-08-08T02:14:09;23.70;;;3.00;;
49962;SDS011;36180;57.678;11.910;2023-08-08T02:16:37;18.55;;;2.22;;
49962;SDS011;36180;57.678;11.910;2023-08-08T02:19:07;19.30;;;2.70;;
49962;SDS011;36180;57.678;11.910;2023-08-08T02:21:34;20.77;;;2.83;;
49962;SDS011;36180;57.678;11.910;2023-08-08T02:24:01;17.80;;;2.10;;
49962;SDS011;36180;57.678;11.910;2023-08-08T02:26:30;23.58;;;2.50;;
49962;SDS011;36180;57.678;11.910;2023-08-08T02:28:57;19.50;;;2.50;;
49962;SDS011;36180;57.678;11.910;2023-08-08T02:31:25;16.80;;;2.70;;
49962;SDS011;36180;57.678;11.910;2023-08-08T02:33:53;21.23;;;2.83;;
49962;SDS011;36180;57.678;11.910;2023-08-08T02:36:21;23.88;;;2.92;;
49962;SDS011;36180;57.678;11.910;2023-08-08T02:38:48;23.38;;;3.25;;
49962;SDS011;36180;57.678;11.910;2023-08-08T02:41:18;20.77;;;2.75;;
49962;SDS011;36180;57.678;11.910;2023-08-08T02:43:46;23.50;;;1.92;;
49962;SDS011;36180;57.678;11.910;2023-08-08T02:46:13;22.65;;;2.72;;
49962;SDS011;36180;57.678;11.910;2023-08-08T02:48:40;24.20;;;3.03;;
49962;SDS011;36180;57.678;11.910;2023-08-08T02:51:09;22.42;;;3.42;;
49962;SDS011;36180;57.678;11.910;2023-08-08T02:53:36;23.65;;;3.28;;
49962;SDS011;36180;57.678;11.910;2023-08-08T02:56:04;26.90;;;3.13;;
49962;SDS011;36180;57.678;11.910;2023-08-08T02:58:35;25.55;;;2.80;;
49962;SDS011;36180;57.678;11.910;2023-08-08T03:01:02;20.10;;;2.65;;
49962;SDS011;36180;57.678;11.910;2023-08-08T03:03:29;26.23;;;2.78;;
49962;SDS011;36180;57.678;11.910;2023-08-08T03:05:57;23.45;;;2.83;;
49962;SDS011;36180;57.678;11.910;2023-08-08T03:08:27;21.20;;;2.67;;
49962;SDS011;36180;57.678;11.910;2023-08-08T03:10:56;20.23;;;3.00;;
49962;SDS011;36180;57.678;11.910;2023-08-08T03:13:23;23.38;;;2.78;;
49962;SDS011;36180;57.678;11.910;2023-08-08T03:15:52;33.40;;;3.58;;
49962;SDS011;36180;57.678;11.910;2023-08-08T03:18:19;23.67;;;3.13;;
49962;SDS011;36180;57.678;11.910;2023-08-08T03:20:48;24.75;;;2.85;;
49962;SDS011;36180;57.678;11.910;2023-08-08T03:23:16;26.50;;;3.50;;
49962;SDS011;36180;57.678;11.910;2023-08-08T03:25:45;25.73;;;3.50;;
49962;SDS011;36180;57.678;11.910;2023-08-08T03:28:13;25.83;;;3.03;;
49962;SDS011;36180;57.678;11.910;2023-08-08T03:30:41;20.00;;;2.63;;
49962;SDS011;36180;57.678;11.910;2023-08-08T03:33:10;22.73;;;2.67;;
49962;SDS011;36180;57.678;11.910;2023-08-08T03:35:37;22.15;;;2.95;;
49962;SDS011;36180;57.678;11.910;2023-08-08T03:38:04;20.80;;;3.38;;
49962;SDS011;36180;57.678;11.910;2023-08-08T03:40:33;25.25;;;3.08;;
49962;SDS011;36180;57.678;11.910;2023-08-08T03:43:01;28.98;;;4.07;;
49962;SDS011;36180;57.678;11.910;2023-08-08T03:45:29;21.42;;;3.22;;
49962;SDS011;36180;57.678;11.910;2023-08-08T03:47:56;24.30;;;3.85;;
49962;SDS011;36180;57.678;11.910;2023-08-08T03:50:23;28.52;;;3.45;;
49962;SDS011;36180;57.678;11.910;2023-08-08T03:52:50;18.88;;;3.28;;
49962;SDS011;36180;57.678;11.910;2023-08-08T03:55:18;17.60;;;2.95;;
49962;SDS011;36180;57.678;11.910;2023-08-08T03:57:46;22.70;;;2.67;;
49962;SDS011;36180;57.678;11.910;2023-08-08T04:00:14;27.55;;;3.25;;
49962;SDS011;36180;57.678;11.910;2023-08-08T04:02:42;21.65;;;3.03;;
49962;SDS011;36180;57.678;11.910;2023-08-08T04:05:10;22.27;;;3.13;;
49962;SDS011;36180;57.678;11.910;2023-08-08T04:07:37;18.30;;;2.70;;
49962;SDS011;36180;57.678;11.910;2023-08-08T04:10:05;36.47;;;3.88;;
49962;SDS011;36180;57.678;11.910;2023-08-08T04:12:32;21.70;;;2.85;;
49962;SDS011;36180;57.678;11.910;2023-08-08T04:14:59;25.42;;;3.58;;
49962;SDS011;36180;57.678;11.910;2023-08-08T04:17:28;26.50;;;3.15;;
49962;SDS011;36180;57.678;11.910;2023-08-08T04:19:55;25.30;;;3.20;;
49962;SDS011;36180;57.678;11.910;2023-08-08T04:22:22;25.40;;;3.80;;
49962;SDS011;36180;57.678;11.910;2023-08-08T04:24:49;22.88;;;2.67;;
49962;SDS011;36180;57.678;11.910;2023-08-08T04:27:16;22.20;;;2.97;;
49962;SDS011;36180;57.678;11.910;2023-08-08T04:29:43;19.05;;;2.35;;
49962;SDS011;36180;57.678;11.910;2023-08-08T04:32:10;25.80;;;2.85;;
49962;SDS011;36180;57.678;11.910;2023-08-08T04:34:39;20.33;;;2.80;;
49962;SDS011;36180;57.678;11.910;2023-08-08T04:37:06;27.50;;;2.50;;
49962;SDS011;36180;57.678;11.910;2023-08-08T04:39:33;19.63;;;3.03;;
49962;SDS011;36180;57.678;11.910;2023-08-08T04:42:00;19.20;;;2.85;;
49962;SDS011;36180;57.678;11.910;2023-08-08T04:44:27;20.33;;;2.40;;
49962;SDS011;36180;57.678;11.910;2023-08-08T04:46:55;27.00;;;2.40;;
49962;SDS011;36180;57.678;11.910;2023-08-08T04:49:22;15.98;;;2.47;;
49962;SDS011;36180;57.678;11.910;2023-08-08T04:51:50;22.63;;;3.22;;
49962;SDS011;36180;57.678;11.910;2023-08-08T04:54:17;20.50;;;2.75;;
49962;SDS011;36180;57.678;11.910;2023-08-08T04:56:44;18.77;;;2.17;;
49962;SDS011;36180;57.678;11.910;2023-08-08T04:59:11;21.23;;;2.67;;
49962;SDS011;36180;57.678;11.910;2023-08-08T05:01:38;25.13;;;3.22;;
49962;SDS011;36180;57.678;11.910;2023-08-08T05:04:05;28.17;;;3.28;;
49962;SDS011;36180;57.678;11.910;2023-08-08T05:06:32;19.13;;;3.33;;
49962;SDS011;36180;57.678;11.910;2023-08-08T05:09:01;20.52;;;2.55;;
49962;SDS011;36180;57.678;11.910;2023-08-08T05:11:28;15.25;;;2.10;;
49962;SDS011;36180;57.678;11.910;2023-08-08T05:13:55;16.50;;;2.40;;
49962;SDS011;36180;57.678;11.910;2023-08-08T05:16:22;14.07;;;2.28;;
49962;SDS011;36180;57.678;11.910;2023-08-08T05:18:49;22.23;;;2.78;;
49962;SDS011;36180;57.678;11.910;2023-08-08T05:21:16;16.17;;;2.70;;
49962;SDS011;36180;57.678;11.910;2023-08-08T05:23:43;18.23;;;2.15;;
49962;SDS011;36180;57.678;11.910;2023-08-08T05:26:13;20.65;;;2.20;;
49962;SDS011;36180;57.678;11.910;2023-08-08T05:28:41;17.50;;;2.70;;
49962;SDS011;36180;57.678;11.910;2023-08-08T05:31:08;17.33;;;2.38;;
49962;SDS011;36180;57.678;11.910;2023-08-08T05:33:35;21.55;;;2.40;;
49962;SDS011;36180;57.678;11.910;2023-08-08T05:36:02;12.90;;;2.00;;
49962;SDS011;36180;57.678;11.910;2023-08-08T05:38:30;19.52;;;2.50;;
49962;SDS011;36180;57.678;11.910;2023-08-08T05:40:57;14.45;;;1.85;;
49962;SDS011;36180;57.678;11.910;2023-08-08T05:43:25;18.42;;;2.28;;
49962;SDS011;36180;57.678;11.910;2023-08-08T05:45:52;15.68;;;2.13;;
49962;SDS011;36180;57.678;11.910;2023-08-08T05:48:20;22.85;;;2.78;;
49962;SDS011;36180;57.678;11.910;2023-08-08T05:50:47;22.77;;;2.45;;
49962;SDS011;36180;57.678;11.910;2023-08-08T05:53:14;28.63;;;2.85;;
49962;SDS011;36180;57.678;11.910;2023-08-08T05:55:41;19.30;;;2.60;;
49962;SDS011;36180;57.678;11.910;2023-08-08T05:58:08;20.75;;;2.65;;
49962;SDS011;36180;57.678;11.910;2023-08-08T06:00:37;13.23;;;2.08;;
49962;SDS011;36180;57.678;11.910;2023-08-08T06:03:04;16.02;;;2.22;;
49962;SDS011;36180;57.678;11.910;2023-08-08T06:05:31;23.13;;;2.45;;
49962;SDS011;36180;57.678;11.910;2023-08-08T06:07:59;13.77;;;2.13;;
49962;SDS011;36180;57.678;11.910;2023-08-08T06:10:26;13.85;;;1.60;;
49962;SDS011;36180;57.678;11.910;2023-08-08T06:12:53;20.65;;;2.10;;
49962;SDS011;36180;57.678;11.910;2023-08-08T06:15:20;14.07;;;2.17;;
49962;SDS011;36180;57.678;11.910;2023-08-08T06:17:48;13.63;;;1.83;;
49962;SDS011;36180;57.678;11.910;2023-08-08T06:20:15;20.17;;;1.98;;
49962;SDS011;36180;57.678;11.910;2023-08-08T06:22:43;19.30;;;2.22;;
49962;SDS011;36180;57.678;11.910;2023-08-08T06:25:10;13.55;;;1.95;;
49962;SDS011;36180;57.678;11.910;2023-08-08T06:27:37;21.40;;;2.22;;
49962;SDS011;36180;57.678;11.910;2023-08-08T06:30:05;24.33;;;2.70;;
49962;SDS011;36180;57.678;11.910;2023-08-08T06:32:33;16.13;;;2.17;;
49962;SDS011;36180;57.678;11.910;2023-08-08T06:35:02;20.00;;;1.77;;
49962;SDS011;36180;57.678;11.910;2023-08-08T06:37:29;24.88;;;2.70;;
49962;SDS011;36180;57.678;11.910;2023-08-08T06:39:56;24.20;;;3.85;;
49962;SDS011;36180;57.678;11.910;2023-08-08T06:42:23;16.50;;;1.88;;
49962;SDS011;36180;57.678;11.910;2023-08-08T06:44:55;23.10;;;2.70;;
49962;SDS011;36180;57.678;11.910;2023-08-08T06:47:22;23.88;;;4.05;;
49962;SDS011;36180;57.678;11.910;2023-08-08T06:49:50;24.58;;;2.88;;
49962;SDS011;36180;57.678;11.910;2023-08-08T06:52:18;17.75;;;2.22;;
49962;SDS011;36180;57.678;11.910;2023-08-08T06:54:45;23.30;;;3.00;;
49962;SDS011;36180;57.678;11.910;2023-08-08T06:57:12;25.27;;;2.63;;
49962;SDS011;36180;57.678;11.910;2023-08-08T06:59:39;17.52;;;2.85;;
49962;SDS011;36180;57.678;11.910;2023-08-08T07:02:06;30.77;;;3.67;;
49962;SDS011;36180;57.678;11.910;2023-08-08T07:04:34;33.80;;;3.53;;
49962;SDS011;36180;57.678;11.910;2023-08-08T07:07:02;32.20;;;3.67;;
49962;SDS011;36180;57.678;11.910;2023-08-08T07:09:31;30.38;;;3.92;;
49962;SDS011;36180;57.678;11.910;2023-08-08T07:11:59;30.98;;;2.90;;
49962;SDS011;36180;57.678;11.910;2023-08-08T07:14:26;25.77;;;3.08;;
49962;SDS011;36180;57.678;11.910;2023-08-08T07:16:54;28.35;;;3.30;;
49962;SDS011;36180;57.678;11.910;2023-08-08T07:19:21;25.63;;;3.35;;
49962;SDS011;36180;57.678;11.910;2023-08-08T07:21:48;21.33;;;2.70;;
49962;SDS011;36180;57.678;11.910;2023-08-08T07:24:15;23.50;;;2.67;;
49962;SDS011;36180;57.678;11.910;2023-08-08T07:26:44;26.63;;;2.83;;
49962;SDS011;36180;57.678;11.910;2023-08-08T07:29:12;31.30;;;3.63;;
49962;SDS011;36180;57.678;11.910;2023-08-08T07:31:39;39.10;;;4.57;;
49962;SDS011;36180;57.678;11.910;2023-08-08T07:34:06;38.17;;;3.88;;
49962;SDS011;36180;57.678;11.910;2023-08-08T07:36:33;32.10;;;4.05;;
49962;SDS011;36180;57.678;11.910;2023-08-08T07:39:00;20.55;;;3.10;;
49962;SDS011;36180;57.678;11.910;2023-08-08T07:41:29;33.10;;;4.25;;
49962;SDS011;36180;57.678;11.910;2023-08-08T07:43:57;27.00;;;2.78;;
49962;SDS011;36180;57.678;11.910;2023-08-08T07:46:24;35.05;;;4.10;;
49962;SDS011;36180;57.678;11.910;2023-08-08T07:48:52;26.33;;;3.70;;
49962;SDS011;36180;57.678;11.910;2023-08-08T07:51:19;26.90;;;3.10;;
49962;SDS011;36180;57.678;11.910;2023-08-08T07:53:46;28.33;;;4.22;;
49962;SDS011;36180;57.678;11.910;2023-08-08T07:56:13;32.08;;;3.00;;
49962;SDS011;36180;57.678;11.910;2023-08-08T07:58:40;23.88;;;4.10;;
49962;SDS011;36180;57.678;11.910;2023-08-08T08:01:08;38.85;;;3.85;;
49962;SDS011;36180;57.678;11.910;2023-08-08T08:03:36;33.25;;;3.97;;
49962;SDS011;36180;57.678;11.910;2023-08-08T08:06:03;34.30;;;3.75;;
49962;SDS011;36180;57.678;11.910;2023-08-08T08:08:31;25.40;;;3.53;;
49962;SDS011;36180;57.678;11.910;2023-08-08T08:10:58;31.08;;;4.07;;
49962;SDS011;36180;57.678;11.910;2023-08-08T08:13:25;27.60;;;3.30;;
49962;SDS011;36180;57.678;11.910;2023-08-08T08:15:52;34.95;;;3.92;;
49962;SDS011;36180;57.678;11.910;2023-08-08T08:18:21;27.58;;;3.20;;
49962;SDS011;36180;57.678;11.910;2023-08-08T08:20:48;32.70;;;4.40;;
49962;SDS011;36180;57.678;11.910;2023-08-08T08:23:15;28.45;;;3.70;;
49962;SDS011;36180;57.678;11.910;2023-08-08T08:25:42;30.38;;;3.80;;
49962;SDS011;36180;57.678;11.910;2023-08-08T08:28:09;31.75;;;4.25;;
49962;SDS011;36180;57.678;11.910;2023-08-08T08:30:36;31.15;;;4.10;;
49962;SDS011;36180;57.678;11.910;2023-08-08T08:33:04;30.50;;;3.42;;
49962;SDS011;36180;57.678;11.910;2023-08-08T08:35:34;34.60;;;3.47;;
49962;SDS011;36180;57.678;11.910;2023-08-08T08:38:01;24.75;;;3.85;;
49962;SDS011;36180;57.678;11.910;2023-08-08T08:40:29;43.30;;;4.50;;
49962;SDS011;36180;57.678;11.910;2023-08-08T08:42:56;50.53;;;5.50;;
49962;SDS011;36180;57.678;11.910;2023-08-08T08:45:24;34.00;;;3.95;;
49962;SDS011;36180;57.678;11.910;2023-08-08T08:47:51;27.95;;;3.45;;
49962;SDS011;36180;57.678;11.910;2023-08-08T08:50:23;33.05;;;4.10;;
49962;SDS011;36180;57.678;11.910;2023-08-08T08:52:55;45.67;;;4.78;;
49962;SDS011;36180;57.678;11.910;2023-08-08T08:55:23;42.58;;;4.75;;
49962;SDS011;36180;57.678;11.910;2023-08-08T08:57:50;53.35;;;5.55;;
49962;SDS011;36180;57.678;11.910;2023-08-08T09:00:18;49.17;;;4.68;;
49962;SDS011;36180;57.678;11.910;2023-08-08T09:02:45;36.35;;;4.47;;
49962;SDS011;36180;57.678;11.910;2023-08-08T09:05:13;37.10;;;4.95;;
49962;SDS011;36180;57.678;11.910;2023-08-08T09:07:40;39.50;;;5.38;;
49962;SDS011;36180;57.678;11.910;2023-08-08T09:10:08;37.55;;;4.22;;
49962;SDS011;36180;57.678;11.910;2023-08-08T09:12:36;50.72;;;6.05;;
49962;SDS011;36180;57.678;11.910;2023-08-08T09:15:03;33.63;;;4.57;;
49962;SDS011;36180;57.678;11.910;2023-08-08T09:17:31;30.42;;;3.30;;
49962;SDS011;36180;57.678;11.910;2023-08-08T09:19:58;32.03;;;4.00;;
49962;SDS011;36180;57.678;11.910;2023-08-08T09:22:26;33.45;;;4.50;;
49962;SDS011;36180;57.678;11.910;2023-08-08T09:24:54;40.22;;;3.95;;
49962;SDS011;36180;57.678;11.910;2023-08-08T09:27:23;37.70;;;4.20;;
49962;SDS011;36180;57.678;11.910;2023-08-08T09:29:50;42.75;;;4.25;;
49962;SDS011;36180;57.678;11.910;2023-08-08T09:32:17;31.88;;;4.22;;
49962;SDS011;36180;57.678;11.910;2023-08-08T09:34:44;43.63;;;5.00;;
49962;SDS011;36180;57.678;11.910;2023-08-08T09:37:11;30.15;;;3.97;;
49962;SDS011;36180;57.678;11.910;2023-08-08T09:39:39;25.20;;;3.15;;
49962;SDS011;36180;57.678;11.910;2023-08-08T09:42:07;27.10;;;3.00;;
49962;SDS011;36180;57.678;11.910;2023-08-08T09:44:38;32.85;;;3.75;;
49962;SDS011;36180;57.678;11.910;2023-08-08T09:47:05;29.88;;;3.00;;
49962;SDS011;36180;57.678;11.910;2023-08-08T09:49:32;34.00;;;4.35;;
49962;SDS011;36180;57.678;11.910;2023-08-08T09:52:01;35.38;;;4.47;;
49962;SDS011;36180;57.678;11.910;2023-08-08T09:54:29;26.33;;;3.10;;
49962;SDS011;36180;57.678;11.910;2023-08-08T09:56:57;24.00;;;3.30;;
49962;SDS011;36180;57.678;11.910;2023-08-08T09:59:25;35.13;;;4.28;;
49962;SDS011;36180;57.678;11.910;2023-08-08T10:01:53;26.13;;;3.50;;
49962;SDS011;36180;57.678;11.910;2023-08-08T10:04:21;28.17;;;3.30;;
49962;SDS011;36180;57.678;11.910;2023-08-08T10:06:48;29.35;;;3.13;;
49962;SDS011;36180;57.678;11.910;2023-08-08T10:09:15;22.65;;;2.40;;
49962;SDS011;36180;57.678;11.910;2023-08-08T10:11:43;24.63;;;2.95;;
49962;SDS011;36180;57.678;11.910;2023-08-08T10:14:10;25.60;;;3.08;;
49962;SDS011;36180;57.678;11.910;2023-08-08T10:16:39;30.48;;;3.65;;
49962;SDS011;36180;57.678;11.910;2023-08-08T10:19:09;23.42;;;2.53;;
49962;SDS011;36180;57.678;11.910;2023-08-08T10:21:37;26.33;;;2.88;;
49962;SDS011;36180;57.678;11.910;2023-08-08T10:24:08;28.83;;;3.42;;
49962;SDS011;36180;57.678;11.910;2023-08-08T10:26:50;15.98;;;2.00;;
49962;SDS011;36180;57.678;11.910;2023-08-08T10:29:18;26.02;;;3.20;;
49962;SDS011;36180;57.678;11.910;2023-08-08T10:31:50;29.33;;;2.95;;
49962;SDS011;36180;57.678;11.910;2023-08-08T10:34:20;23.40;;;2.85;;
49962;SDS011;36180;57.678;11.910;2023-08-08T10:36:50;33.55;;;4.22;;
49962;SDS011;36180;57.678;11.910;2023-08-08T10:39:18;28.45;;;3.30;;
49962;SDS011;36180;57.678;11.910;2023-08-08T10:41:46;26.05;;;2.70;;
49962;SDS011;36180;57.678;11.910;2023-08-08T10:44:20;20.45;;;2.03;;
49962;SDS011;36180;57.678;11.910;2023-08-08T10:46:48;25.60;;;3.17;;
49962;SDS011;36180;57.678;11.910;2023-08-08T10:49:16;37.72;;;4.28;;
49962;SDS011;36180;57.678;11.910;2023-08-08T10:51:45;29.38;;;3.58;;
49962;SDS011;36180;57.678;11.910;2023-08-08T10:54:14;31.55;;;3.10;;
49962;SDS011;36180;57.678;11.910;2023-08-08T10:56:47;29.02;;;3.78;;
49962;SDS011;36180;57.678;11.910;2023-08-08T10:59:15;37.60;;;4.55;;
49962;SDS011;36180;57.678;11.910;2023-08-08T11:01:45;35.78;;;3.75;;
49962;SDS011;36180;57.678;11.910;2023-08-08T11:04:13;45.85;;;3.78;;
49962;SDS011;36180;57.678;11.910;2023-08-08T11:06:40;29.38;;;3.67;;
49962;SDS011;36180;57.678;11.910;2023-08-08T11:09:09;29.27;;;3.38;;
49962;SDS011;36180;57.678;11.910;2023-08-08T11:11:37;39.92;;;4.63;;
49962;SDS011;36180;57.678;11.910;2023-08-08T11:14:11;35.00;;;4.07;;
49962;SDS011;36180;57.678;11.910;2023-08-08T11:16:39;33.65;;;4.30;;
49962;SDS011;36180;57.678;11.910;2023-08-08T11:19:06;33.55;;;5.15;;
49962;SDS011;36180;57.678;11.910;2023-08-08T11:21:34;38.38;;;5.38;;
49962;SDS011;36180;57.678;11.910;2023-08-08T11:24:02;36.92;;;5.47;;
49962;SDS011;36180;57.678;11.910;2023-08-08T11:26:31;60.10;;;6.53;;
49962;SDS011;36180;57.678;11.910;2023-08-08T11:28:59;54.63;;;6.35;;
49962;SDS011;36180;57.678;11.910;2023-08-08T11:31:26;63.20;;;6.30;;
49962;SDS011;36180;57.678;11.910;2023-08-08T11:33:54;50.55;;;5.53;;
49962;SDS011;36180;57.678;11.910;2023-08-08T11:36:22;58.03;;;6.25;;
49962;SDS011;36180;57.678;11.910;2023-08-08T11:38:49;58.83;;;6.75;;
49962;SDS011;36180;57.678;11.910;2023-08-08T11:41:17;57.67;;;6.60;;
49962;SDS011;36180;57.678;11.910;2023-08-08T11:43:49;52.67;;;7.10;;
49962;SDS011;36180;57.678;11.910;2023-08-08T11:46:17;67.80;;;7.68;;
49962;SDS011;36180;57.678;11.910;2023-08-08T11:48:46;62.80;;;7.70;;
49962;SDS011;36180;57.678;11.910;2023-08-08T11:51:13;56.83;;;6.45;;
49962;SDS011;36180;57.678;11.910;2023-08-08T11:53:47;68.28;;;7.20;;
49962;SDS011;36180;57.678;11.910;2023-08-08T11:56:15;52.78;;;6.38;;
49962;SDS011;36180;57.678;11.910;2023-08-08T11:58:43;51.45;;;6.63;;
49962;SDS011;36180;57.678;11.910;2023-08-08T12:01:11;57.38;;;8.18;;
49962;SDS011;36180;57.678;11.910;2023-08-08T12:03:39;51.90;;;6.82;;
49962;SDS011;36180;57.678;11.910;2023-08-08T12:06:13;48.80;;;6.88;;
49962;SDS011;36180;57.678;11.910;2023-08-08T12:08:41;59.88;;;6.35;;
49962;SDS011;36180;57.678;11.910;2023-08-08T12:11:10;54.65;;;6.90;;
49962;SDS011;36180;57.678;11.910;2023-08-08T12:13:37;51.58;;;6.53;;
49962;SDS011;36180;57.678;11.910;2023-08-08T12:16:06;43.53;;;6.10;;
49962;SDS011;36180;57.678;11.910;2023-08-08T12:18:35;46.00;;;6.43;;
49962;SDS011;36180;57.678;11.910;2023-08-08T12:21:03;55.20;;;7.63;;
49962;SDS011;36180;57.678;11.910;2023-08-08T12:23:31;54.55;;;6.50;;
49962;SDS011;36180;57.678;11.910;2023-08-08T12:25:58;56.03;;;8.02;;
49962;SDS011;36180;57.678;11.910;2023-08-08T12:28:26;62.08;;;8.13;;
49962;SDS011;36180;57.678;11.910;2023-08-08T12:30:53;43.25;;;6.53;;
49962;SDS011;36180;57.678;11.910;2023-08-08T12:33:20;47.40;;;6.50;;
49962;SDS011;36180;57.678;11.910;2023-08-08T12:35:48;54.53;;;7.05;;
49962;SDS011;36180;57.678;11.910;2023-08-08T12:38:16;51.10;;;6.57;;
49962;SDS011;36180;57.678;11.910;2023-08-08T12:40:43;41.58;;;5.60;;
49962;SDS011;36180;57.678;11.910;2023-08-08T12:43:10;55.58;;;6.72;;
49962;SDS011;36180;57.678;11.910;2023-08-08T12:45:42;39.47;;;5.65;;
49962;SDS011;36180;57.678;11.910;2023-08-08T12:48:09;51.85;;;5.47;;
49962;SDS011;36180;57.678;11.910;2023-08-08T12:50:36;47.83;;;6.03;;
49962;SDS011;36180;57.678;11.910;2023-08-08T12:53:05;51.92;;;6.68;;
49962;SDS011;36180;57.678;11.910;2023-08-08T12:55:33;58.58;;;7.25;;
49962;SDS011;36180;57.678;11.910;2023-08-08T12:58:00;53.33;;;7.18;;
49962;SDS011;36180;57.678;11.910;2023-08-08T13:00:28;61.00;;;7.55;;
49962;SDS011;36180;57.678;11.910;2023-08-08T13:02:55;58.20;;;8.27;;
49962;SDS011;36180;57.678;11.910;2023-08-08T13:05:22;50.05;;;6.25;;
49962;SDS011;36180;57.678;11.910;2023-08-08T13:07:49;58.13;;;6.28;;
49962;SDS011;36180;57.678;11.910;2023-08-08T13:10:18;61.55;;;7.15;;
49962;SDS011;36180;57.678;11.910;2023-08-08T13:12:45;52.75;;;7.25;;
49962;SDS011;36180;57.678;11.910;2023-08-08T13:15:12;46.22;;;6.80;;
49962;SDS011;36180;57.678;11.910;2023-08-08T13:17:40;55.67;;;6.28;;
49962;SDS011;36180;57.678;11.910;2023-08-08T13:20:07;55.42;;;6.22;;
49962;SDS011;36180;57.678;11.910;2023-08-08T13:22:36;60.13;;;6.53;;
49962;SDS011;36180;57.678;11.910;2023-08-08T13:25:03;45.58;;;6.22;;
49962;SDS011;36180;57.678;11.910;2023-08-08T13:27:33;40.30;;;6.05;;
49962;SDS011;36180;57.678;11.910;2023-08-08T13:30:00;48.55;;;6.45;;
49962;SDS011;36180;57.678;11.910;2023-08-08T13:32:27;50.83;;;7.25;;
49962;SDS011;36180;57.678;11.910;2023-08-08T13:34:54;48.65;;;5.90;;
49962;SDS011;36180;57.678;11.910;2023-08-08T13:37:21;50.42;;;6.00;;
49962;SDS011;36180;57.678;11.910;2023-08-08T13:39:49;44.72;;;6.20;;
49962;SDS011;36180;57.678;11.910;2023-08-08T13:42:16;55.85;;;7.75;;
49962;SDS011;36180;57.678;11.910;2023-08-08T13:44:44;52.45;;;6.05;;
49962;SDS011;36180;57.678;11.910;2023-08-08T13:47:11;38.97;;;5.82;;
49962;SDS011;36180;57.678;11.910;2023-08-08T13:49:38;56.83;;;6.88;;
49962;SDS011;36180;57.678;11.910;2023-08-08T13:52:06;48.65;;;6.22;;
49962;SDS011;36180;57.678;11.910;2023-08-08T13:54:33;57.42;;;7.68;;
49962;SDS011;36180;57.678;11.910;2023-08-08T13:57:00;48.35;;;6.43;;
49962;SDS011;36180;57.678;11.910;2023-08-08T13:59:27;42.58;;;6.13;;
49962;SDS011;36180;57.678;11.910;2023-08-08T14:01:56;44.22;;;6.00;;
49962;SDS011;36180;57.678;11.910;2023-08-08T14:04:23;45.17;;;6.65;;
49962;SDS011;36180;57.678;11.910;2023-08-08T14:06:50;43.15;;;6.68;;
49962;SDS011;36180;57.678;11.910;2023-08-08T14:09:18;52.70;;;6.38;;
49962;SDS011;36180;57.678;11.910;2023-08-08T14:11:45;50.45;;;7.07;;
49962;SDS011;36180;57.678;11.910;2023-08-08T14:14:12;44.95;;;5.32;;
49962;SDS011;36180;57.678;11.910;2023-08-08T14:16:39;39.33;;;6.35;;
49962;SDS011;36180;57.678;11.910;2023-08-08T14:19:08;44.72;;;7.63;;
49962;SDS011;36180;57.678;11.910;2023-08-08T14:21:35;44.13;;;5.88;;
49962;SDS011;36180;57.678;11.910;2023-08-08T14:24:02;37.08;;;5.25;;